createdAt,value
2022-07-29T04:31:00.856Z,73.32
2022-07-29T04:32:00.678Z,72.92
2022-07-29T04:33:00.668Z,73.63
2022-07-29T04:34:00.667Z,73.43
2022-07-29T04:35:00.644Z,73.43
2022-07-29T04:36:00.625Z,73.32
2022-07-29T04:37:00.614Z,72.92
2022-07-29T04:38:00.596Z,72.51
2022-07-29T04:39:00.596Z,72.41
2022-07-29T04:40:00.575Z,73.83
2022-07-29T04:41:00.565Z,73.22
2022-07-29T04:42:00.543Z,73.52
2022-07-29T04:43:00.599Z,72.92
2022-07-29T04:44:07.604Z,73.12
2022-07-29T04:45:01.292Z,73.39
2022-07-29T04:46:00.509Z,73.39
2022-07-29T04:47:00.485Z,72.08
2022-07-29T04:48:00.467Z,72.78
2022-07-29T04:49:00.612Z,72.99
2022-07-29T04:50:00.444Z,72.68
2022-07-29T04:51:00.443Z,72.48
2022-07-29T04:52:00.470Z,72.58
2022-07-29T04:53:00.418Z,72.88
2022-07-29T04:54:00.421Z,72.48
2022-07-29T04:55:00.387Z,72.99
2022-07-29T04:56:00.391Z,72.48
2022-07-29T04:57:00.356Z,72.17
2022-07-29T04:58:00.335Z,72.58
2022-07-29T04:59:00.336Z,73.19
2022-07-29T05:00:00.325Z,72.99
2022-07-29T05:01:00.308Z,72.17
2022-07-29T05:02:00.344Z,73.75
2022-07-29T05:03:00.406Z,73.35
2022-07-29T05:04:00.801Z,73.05
2022-07-29T05:05:00.254Z,73.62
2022-07-29T05:06:00.235Z,71.97
2022-07-29T05:07:00.227Z,71.37
2022-07-29T05:08:00.216Z,69.92
2022-07-29T05:09:00.217Z,70.53
2022-07-29T05:10:00.212Z,71.13
2022-07-29T05:11:11.663Z,70.02
2022-07-29T05:12:01.164Z,69.11
2022-07-29T05:13:00.145Z,69.68
2022-07-29T05:14:00.185Z,68.77
2022-07-29T05:15:00.136Z,70.12
2022-07-29T05:16:00.187Z,70.79
2022-07-29T05:17:00.093Z,69.08
2022-07-29T05:18:00.085Z,69.89
2022-07-29T05:19:00.054Z,69.18
2022-07-29T05:20:00.061Z,70.09
2022-07-29T05:21:00.045Z,69.59
2022-07-29T05:22:00.025Z,69.99
2022-07-29T05:23:00.004Z,69.08
2022-07-29T05:23:59.985Z,68.17
2022-07-29T05:25:01.461Z,68.98
2022-07-29T05:25:59.967Z,67.97
2022-07-29T05:26:59.954Z,68.21
2022-07-29T05:27:59.975Z,68.10
2022-07-29T05:28:59.924Z,69.04
2022-07-29T05:29:59.956Z,69.45
2022-07-29T05:30:59.971Z,69.95
2022-07-29T05:31:59.874Z,70.59
2022-07-29T05:32:59.871Z,70.69
2022-07-29T05:33:59.854Z,71.50
2022-07-29T05:34:59.860Z,71.80
2022-07-29T05:36:00.747Z,71.70
2022-07-29T05:36:59.812Z,71.77
2022-07-29T05:37:59.803Z,71.47
2022-07-29T05:38:59.793Z,70.76
2022-07-29T05:39:59.793Z,71.00
2022-07-29T05:40:59.783Z,71.00
2022-07-29T05:41:59.744Z,71.30
2022-07-29T05:42:59.746Z,71.30
2022-07-29T05:43:59.722Z,71.44
2022-07-29T05:44:59.714Z,71.50
2022-07-29T05:45:59.736Z,71.50
2022-07-29T05:46:59.677Z,71.97
2022-07-29T05:47:59.684Z,71.23
2022-07-29T05:48:59.692Z,69.72
2022-07-29T05:49:59.654Z,70.12
2022-07-29T05:50:59.653Z,69.62
2022-07-29T05:51:59.626Z,68.91
2022-07-29T05:52:59.593Z,68.81
2022-07-29T05:54:00.584Z,69.62
2022-07-29T05:54:59.574Z,70.62
2022-07-29T05:55:59.556Z,69.89
2022-07-29T05:56:59.591Z,69.25
2022-07-29T05:57:59.602Z,68.54
2022-07-29T05:58:59.514Z,68.51
2022-07-29T05:59:59.524Z,69.52
2022-07-29T06:00:59.534Z,68.68
2022-07-29T06:01:59.548Z,67.88
2022-07-29T06:02:59.483Z,67.88
2022-07-29T06:03:59.493Z,67.77
2022-07-29T06:04:59.492Z,68.08
2022-07-29T06:05:59.422Z,67.68
2022-07-29T06:06:59.403Z,68.18
2022-07-29T06:07:59.404Z,68.58
2022-07-29T06:08:59.383Z,68.38
2022-07-29T06:10:00.383Z,67.57
2022-07-29T06:10:59.355Z,68.38
2022-07-29T06:11:59.424Z,68.81
2022-07-29T06:12:59.324Z,68.71
2022-07-29T06:13:59.326Z,68.81
2022-07-29T06:14:59.314Z,69.72
2022-07-29T06:15:59.356Z,70.12
2022-07-29T06:16:59.274Z,70.90
2022-07-29T06:18:01.501Z,69.49
2022-07-29T06:18:59.252Z,69.79
2022-07-29T06:19:59.246Z,69.62
2022-07-29T06:20:59.257Z,70.02
2022-07-29T06:21:59.212Z,70.32
2022-07-29T06:22:59.247Z,70.53
2022-07-29T06:23:59.186Z,70.26
2022-07-29T06:24:59.186Z,71.64
2022-07-29T06:25:59.155Z,69.72
2022-07-29T06:26:59.209Z,70.32
2022-07-29T06:27:59.132Z,69.72
2022-07-29T06:28:59.112Z,70.62
2022-07-29T06:29:59.131Z,70.36
2022-07-29T06:30:59.186Z,70.66
2022-07-29T06:31:59.092Z,70.56
2022-07-29T06:32:59.269Z,72.27
2022-07-29T06:33:59.117Z,70.15
2022-07-29T06:35:24.464Z,71.97
2022-07-29T06:36:00.032Z,71.57
2022-07-29T06:36:59.005Z,71.44
2022-07-29T06:37:59.842Z,70.53
2022-07-29T06:38:58.983Z,70.73
2022-07-29T06:39:59.634Z,70.53
2022-07-29T06:40:58.953Z,69.92
2022-07-29T06:41:58.954Z,70.62
2022-07-29T06:42:58.931Z,69.12
2022-07-29T06:43:58.924Z,68.91
2022-07-29T06:44:58.913Z,69.38
2022-07-29T06:45:58.948Z,68.98
2022-07-29T06:46:58.888Z,67.88
2022-07-29T06:47:58.873Z,69.18
2022-07-29T06:48:58.892Z,68.48
2022-07-29T06:49:58.862Z,67.47
2022-07-29T06:50:58.823Z,68.04
2022-07-29T06:51:58.812Z,68.24
2022-07-29T06:52:58.825Z,67.34
2022-07-29T06:54:02.850Z,67.34
2022-07-29T06:54:58.773Z,66.67
2022-07-29T06:55:58.781Z,67.47
2022-07-29T06:56:58.742Z,66.47
2022-07-29T06:57:58.735Z,68.85
2022-07-29T06:58:58.732Z,67.17
2022-07-29T06:59:58.710Z,67.54
2022-07-29T07:00:58.734Z,66.23
2022-07-29T07:01:58.732Z,67.34
2022-07-29T07:02:58.663Z,67.03
2022-07-29T07:03:58.660Z,66.63
2022-07-29T07:04:58.642Z,68.24
2022-07-29T07:05:58.642Z,66.53
2022-07-29T07:06:58.612Z,66.63
2022-07-29T07:07:58.646Z,67.68
2022-07-29T07:08:58.589Z,66.87
2022-07-29T07:09:58.581Z,67.17
2022-07-29T07:10:58.582Z,67.77
2022-07-29T07:11:58.572Z,67.37
2022-07-29T07:12:58.532Z,68.38
2022-07-29T07:14:03.041Z,68.78
2022-07-29T07:14:59.534Z,68.48
2022-07-29T07:15:58.525Z,67.77
2022-07-29T07:16:58.514Z,67.91
2022-07-29T07:17:58.470Z,68.71
2022-07-29T07:18:58.456Z,68.21
2022-07-29T07:19:58.442Z,68.41
2022-07-29T07:20:58.431Z,68.31
2022-07-29T07:21:58.411Z,68.91
2022-07-29T07:22:58.400Z,68.91
2022-07-29T07:23:58.396Z,69.72
2022-07-29T07:24:58.373Z,69.12
2022-07-29T07:25:58.373Z,69.21
2022-07-29T07:26:58.341Z,70.42
2022-07-29T07:27:58.337Z,68.95
2022-07-29T07:28:58.332Z,69.05
2022-07-29T07:29:58.319Z,69.45
2022-07-29T07:30:58.302Z,70.12
2022-07-29T07:32:00.912Z,69.92
2022-07-29T07:32:58.261Z,69.62
2022-07-29T07:33:58.266Z,69.21
2022-07-29T07:34:58.241Z,69.52
2022-07-29T07:35:58.242Z,68.91
2022-07-29T07:36:58.216Z,69.62
2022-07-29T07:37:58.202Z,69.42
2022-07-29T07:38:58.188Z,70.02
2022-07-29T07:39:58.184Z,69.21
2022-07-29T07:40:58.171Z,69.59
2022-07-29T07:41:58.151Z,69.09
2022-07-29T07:42:58.137Z,70.09
2022-07-29T07:43:58.123Z,68.98
2022-07-29T07:45:13.109Z,69.25
2022-07-29T07:45:59.188Z,69.05
2022-07-29T07:46:58.090Z,69.05
2022-07-29T07:47:59.072Z,68.95
2022-07-29T07:48:58.082Z,68.65
2022-07-29T07:49:58.053Z,69.65
2022-07-29T07:50:58.051Z,69.56
2022-07-29T07:51:58.011Z,69.45
2022-07-29T07:52:58.003Z,68.65
2022-07-29T07:53:57.993Z,69.15
2022-07-29T07:54:57.981Z,68.55
2022-07-29T07:56:10.354Z,69.56
2022-07-29T07:56:58.956Z,69.56
2022-07-29T07:57:57.932Z,69.25
2022-07-29T07:58:57.931Z,69.12
2022-07-29T07:59:57.903Z,69.02
2022-07-29T08:00:57.984Z,69.76
2022-07-29T08:01:58.011Z,69.96
2022-07-29T08:02:57.911Z,70.16
2022-07-29T08:03:57.851Z,71.97
2022-07-29T08:04:57.846Z,71.97
2022-07-29T08:05:57.842Z,72.37
2022-07-29T08:06:57.837Z,72.37
2022-07-29T08:07:57.802Z,72.27
2022-07-29T08:09:19.492Z,71.77
2022-07-29T08:09:58.772Z,73.01
2022-07-29T08:10:57.772Z,71.80
2022-07-29T08:11:57.793Z,71.80
2022-07-29T08:12:57.756Z,71.70
2022-07-29T08:13:57.727Z,72.31
2022-07-29T08:14:57.712Z,71.64
2022-07-29T08:15:57.712Z,73.35
2022-07-29T08:16:57.705Z,72.85
2022-07-29T08:17:57.670Z,72.85
2022-07-29T08:18:57.664Z,73.35
2022-07-29T08:19:57.652Z,73.68
2022-07-29T08:20:57.669Z,74.08
2022-07-29T08:21:57.641Z,74.29
2022-07-29T08:22:57.622Z,74.08
2022-07-29T08:24:00.662Z,73.38
2022-07-29T08:24:58.581Z,74.29
2022-07-29T08:25:57.586Z,73.28
2022-07-29T08:26:57.554Z,73.28
2022-07-29T08:27:57.543Z,73.68
2022-07-29T08:28:57.547Z,73.58
2022-07-29T08:29:57.514Z,73.48
2022-07-29T08:30:57.512Z,74.08
2022-07-29T08:31:57.525Z,73.68
2022-07-29T08:32:57.519Z,74.29
2022-07-29T08:33:57.512Z,73.38
2022-07-29T08:34:57.452Z,73.28
2022-07-29T08:35:57.462Z,72.78
2022-07-29T08:36:57.422Z,72.54
2022-07-29T08:37:57.409Z,73.45
2022-07-29T08:38:57.402Z,72.44
2022-07-29T08:39:57.403Z,72.44
2022-07-29T08:40:57.422Z,73.72
2022-07-29T08:41:57.764Z,72.41
2022-07-29T08:42:57.340Z,73.68
2022-07-29T08:43:57.322Z,72.88
2022-07-29T08:44:57.312Z,72.54
2022-07-29T08:45:57.349Z,70.63
2022-07-29T08:46:57.285Z,70.83
2022-07-29T08:47:57.272Z,70.73
2022-07-29T08:48:57.286Z,71.09
2022-07-29T08:49:57.244Z,73.00
2022-07-29T08:50:57.255Z,70.29
2022-07-29T08:51:57.519Z,70.09
2022-07-29T08:52:59.867Z,69.59
2022-07-29T08:53:57.193Z,68.95
2022-07-29T08:54:57.181Z,68.75
2022-07-29T08:55:57.183Z,69.65
2022-07-29T08:56:57.172Z,68.45
2022-07-29T08:57:57.419Z,70.26
2022-07-29T08:58:57.133Z,68.15
2022-07-29T08:59:57.123Z,68.35
2022-07-29T09:00:58.150Z,69.56
2022-07-29T09:01:57.343Z,69.45
2022-07-29T09:02:57.081Z,69.65
2022-07-29T09:03:57.092Z,70.06
2022-07-29T09:04:57.053Z,70.06
2022-07-29T09:05:57.042Z,69.15
2022-07-29T09:06:57.023Z,70.16
2022-07-29T09:07:57.012Z,70.56
2022-07-29T09:08:57.001Z,70.76
2022-07-29T09:09:56.980Z,70.76
2022-07-29T09:10:56.984Z,70.63
2022-07-29T09:11:57.417Z,69.82
2022-07-29T09:12:56.946Z,69.92
2022-07-29T09:13:56.924Z,70.73
2022-07-29T09:14:56.935Z,71.43
2022-07-29T09:15:56.942Z,71.83
2022-07-29T09:16:56.961Z,70.63
2022-07-29T09:17:56.874Z,71.03
2022-07-29T09:18:56.872Z,71.13
2022-07-29T09:19:56.852Z,71.13
2022-07-29T09:20:56.889Z,71.36
2022-07-29T09:21:56.832Z,71.26
2022-07-29T09:22:56.836Z,72.61
2022-07-29T09:23:56.794Z,72.47
2022-07-29T09:24:56.801Z,72.27
2022-07-29T09:25:56.783Z,71.47
2022-07-29T09:26:56.916Z,71.36
2022-07-29T09:27:56.747Z,71.36
2022-07-29T09:28:56.754Z,71.26
2022-07-29T09:29:56.735Z,71.77
2022-07-29T09:30:56.731Z,72.53
2022-07-29T09:31:56.750Z,71.23
2022-07-29T09:32:56.694Z,70.39
2022-07-29T09:33:56.692Z,70.29
2022-07-29T09:34:58.486Z,70.66
2022-07-29T09:35:57.148Z,71.36
2022-07-29T09:36:57.095Z,70.79
2022-07-29T09:37:56.614Z,71.00
2022-07-29T09:38:56.604Z,71.20
2022-07-29T09:39:56.583Z,71.00
2022-07-29T09:40:56.583Z,71.40
2022-07-29T09:41:56.574Z,70.50
2022-07-29T09:42:56.561Z,70.63
2022-07-29T09:43:56.534Z,71.53
2022-07-29T09:44:56.525Z,71.90
2022-07-29T09:45:56.513Z,72.10
2022-07-29T09:46:56.858Z,71.30
2022-07-29T09:47:56.511Z,71.23
2022-07-29T09:48:56.528Z,71.53
2022-07-29T09:49:56.455Z,71.83
2022-07-29T09:50:56.463Z,72.53
2022-07-29T09:51:56.444Z,72.13
2022-07-29T09:52:56.422Z,72.94
2022-07-29T09:53:56.414Z,71.90
2022-07-29T09:54:56.395Z,71.20
2022-07-29T09:55:56.384Z,71.16
2022-07-29T09:56:56.639Z,70.76
2022-07-29T09:57:56.447Z,71.77
2022-07-29T09:58:56.334Z,70.86
2022-07-29T09:59:56.325Z,71.00
2022-07-29T10:00:56.360Z,71.40
2022-07-29T10:01:56.570Z,72.87
2022-07-29T10:02:56.314Z,72.87
2022-07-29T10:03:56.274Z,71.77
2022-07-29T10:04:56.256Z,70.76
2022-07-29T10:05:56.257Z,70.76
2022-07-29T10:07:03.539Z,71.47
2022-07-29T10:07:57.584Z,71.47
2022-07-29T10:08:56.224Z,72.10
2022-07-29T10:09:56.223Z,72.53
2022-07-29T10:10:56.197Z,72.33
2022-07-29T10:11:56.185Z,73.24
2022-07-29T10:12:56.155Z,73.38
2022-07-29T10:13:56.144Z,72.57
2022-07-29T10:14:56.125Z,73.07
2022-07-29T10:15:56.170Z,73.47
2022-07-29T10:16:56.104Z,73.47
2022-07-29T10:17:56.085Z,73.34
2022-07-29T10:18:56.075Z,72.74
2022-07-29T10:19:56.068Z,72.24
2022-07-29T10:20:56.046Z,72.33
2022-07-29T10:21:58.126Z,72.33
2022-07-29T10:22:56.024Z,72.94
2022-07-29T10:23:56.015Z,72.94
2022-07-29T10:24:57.001Z,73.14
2022-07-29T10:25:55.996Z,73.34
2022-07-29T10:26:55.986Z,73.54
2022-07-29T10:27:55.991Z,73.24
2022-07-29T10:28:55.947Z,73.44
2022-07-29T10:29:55.937Z,73.14
2022-07-29T10:30:55.947Z,73.84
2022-07-29T10:31:56.181Z,73.74
2022-07-29T10:32:55.921Z,73.41
2022-07-29T10:33:55.901Z,73.30
2022-07-29T10:34:55.865Z,72.90
2022-07-29T10:35:55.865Z,72.90
2022-07-29T10:36:55.856Z,73.00
2022-07-29T10:37:55.836Z,73.50
2022-07-29T10:38:55.815Z,73.10
2022-07-29T10:39:55.806Z,73.04
2022-07-29T10:40:57.275Z,73.04
2022-07-29T10:41:55.969Z,73.41
2022-07-29T10:42:55.768Z,72.53
2022-07-29T10:44:52.188Z,72.44
2022-07-29T10:45:52.620Z,72.13
2022-07-29T10:46:52.303Z,72.24
2022-07-29T10:47:52.149Z,73.44
2022-07-29T10:48:52.157Z,72.13
2022-07-29T10:49:52.127Z,72.03
2022-07-29T10:50:52.118Z,72.64
2022-07-29T10:51:52.109Z,72.44
2022-07-29T10:52:52.078Z,72.07
2022-07-29T10:53:52.072Z,72.37
2022-07-29T10:54:52.049Z,72.37
2022-07-29T10:55:52.049Z,73.78
2022-07-29T10:56:52.055Z,73.27
2022-07-29T10:57:53.926Z,73.38
2022-07-29T10:58:52.723Z,73.68
2022-07-29T10:59:53.034Z,73.58
2022-07-29T11:00:51.972Z,73.88
2022-07-29T11:01:52.709Z,73.47
2022-07-29T11:02:52.041Z,73.11
2022-07-29T11:03:52.341Z,73.21
2022-07-29T11:04:51.927Z,74.08
2022-07-29T11:05:51.917Z,73.71
2022-07-29T11:06:51.909Z,73.51
2022-07-29T11:07:51.888Z,74.62
2022-07-29T11:08:51.870Z,74.62
2022-07-29T11:09:51.873Z,75.09
2022-07-29T11:10:51.849Z,75.49
2022-07-29T11:11:51.863Z,75.42
2022-07-29T11:12:51.821Z,77.13
2022-07-29T11:13:52.374Z,77.43
2022-07-29T11:14:51.789Z,78.14
2022-07-29T11:15:51.778Z,79.18
2022-07-29T11:16:51.779Z,78.78
2022-07-29T11:17:53.064Z,78.78
2022-07-29T11:18:51.775Z,79.18
2022-07-29T11:19:52.271Z,80.52
2022-07-29T11:20:51.718Z,80.22
2022-07-29T11:21:55.079Z,79.92
2022-07-29T11:22:51.678Z,80.93
2022-07-29T11:23:51.679Z,81.03
2022-07-29T11:24:51.697Z,81.57
2022-07-29T11:25:52.389Z,81.77
2022-07-29T11:26:51.649Z,80.97
2022-07-29T11:27:51.629Z,81.27
2022-07-29T11:28:51.608Z,82.58
2022-07-29T11:29:51.603Z,83.22
2022-07-29T11:30:51.579Z,84.43
2022-07-29T11:31:51.568Z,84.63
2022-07-29T11:32:51.568Z,84.63
2022-07-29T11:33:56.125Z,85.44
2022-07-29T11:34:52.526Z,84.83
2022-07-29T11:36:00.765Z,84.88
2022-07-29T11:36:52.507Z,84.97
2022-07-29T11:37:52.780Z,86.49
2022-07-29T11:38:52.469Z,86.29
2022-07-29T11:39:51.531Z,85.68
2022-07-29T11:40:51.447Z,85.78
2022-07-29T11:41:51.438Z,86.69
2022-07-29T11:42:51.888Z,87.09
2022-07-29T11:43:51.408Z,87.19
2022-07-29T11:44:51.394Z,86.69
2022-07-29T11:45:51.413Z,86.89
2022-07-29T11:46:51.367Z,87.29
2022-07-29T11:47:51.431Z,87.09
2022-07-29T11:48:52.061Z,87.90
2022-07-29T11:49:51.329Z,87.25
2022-07-29T11:50:51.308Z,87.25
2022-07-29T11:51:51.307Z,86.35
2022-07-29T11:52:51.307Z,85.34
2022-07-29T11:53:52.461Z,85.14
2022-07-29T11:54:58.389Z,85.14
2022-07-29T11:55:52.248Z,85.44
2022-07-29T11:56:51.230Z,84.63
2022-07-29T11:58:03.760Z,84.39
2022-07-29T11:58:52.208Z,83.89
2022-07-29T11:59:51.196Z,84.19
2022-07-29T12:00:51.179Z,84.59
2022-07-29T12:01:51.169Z,84.39
2022-07-29T12:02:51.159Z,84.80
2022-07-29T12:03:51.220Z,84.09
2022-07-29T12:04:51.149Z,84.09
2022-07-29T12:06:52.098Z,84.49
2022-07-29T12:07:03.218Z,83.99
2022-07-29T12:07:51.100Z,83.34
2022-07-29T12:08:51.070Z,83.25
2022-07-29T12:09:51.067Z,82.94
2022-07-29T12:10:51.047Z,82.40
2022-07-29T12:11:51.040Z,81.99
2022-07-29T12:12:51.054Z,81.46
2022-07-29T12:13:51.018Z,80.75
2022-07-29T12:14:50.988Z,80.85
2022-07-29T12:15:51.017Z,80.91
2022-07-29T12:16:51.054Z,80.91
2022-07-29T12:17:50.978Z,80.21
2022-07-29T12:18:50.939Z,79.57
2022-07-29T12:19:51.038Z,79.87
2022-07-29T12:20:50.919Z,79.67
2022-07-29T12:21:56.293Z,78.86
2022-07-29T12:22:51.909Z,79.63
2022-07-29T12:23:50.879Z,78.83
2022-07-29T12:24:50.861Z,78.39
2022-07-29T12:25:51.860Z,77.75
2022-07-29T12:26:50.840Z,77.31
2022-07-29T12:27:50.843Z,76.71
2022-07-29T12:28:50.809Z,77.58
2022-07-29T12:29:50.800Z,76.17
2022-07-29T12:30:51.624Z,74.07
2022-07-29T12:31:50.808Z,73.77
2022-07-29T12:32:50.761Z,74.33
2022-07-29T12:33:50.772Z,74.54
2022-07-29T12:34:50.733Z,73.63
2022-07-29T12:36:06.263Z,74.63
2022-07-29T12:36:51.710Z,75.10
2022-07-29T12:37:50.702Z,74.80
2022-07-29T12:38:50.693Z,73.70
2022-07-29T12:39:50.715Z,73.00
2022-07-29T12:40:50.652Z,73.39
2022-07-29T12:41:50.653Z,72.80
2022-07-29T12:42:50.631Z,72.69
2022-07-29T12:43:50.622Z,72.96
2022-07-29T12:44:50.598Z,73.56
2022-07-29T12:45:50.591Z,72.06
2022-07-29T12:46:50.613Z,73.06
2022-07-29T12:47:50.561Z,73.66
2022-07-29T12:48:50.635Z,71.66
2022-07-29T12:49:50.546Z,71.56
2022-07-29T12:50:50.520Z,72.06
2022-07-29T12:51:50.510Z,71.33
2022-07-29T12:52:50.491Z,71.92
2022-07-29T12:53:50.499Z,71.23
2022-07-29T12:54:50.501Z,70.32
2022-07-29T12:55:50.451Z,70.43
2022-07-29T12:56:50.441Z,70.62
2022-07-29T12:57:50.433Z,70.53
2022-07-29T12:58:51.457Z,70.12
2022-07-29T12:59:50.402Z,70.36
2022-07-29T13:00:50.432Z,72.72
2022-07-29T13:01:50.573Z,70.69
2022-07-29T13:02:50.405Z,70.29
2022-07-29T13:03:56.917Z,70.76
2022-07-29T13:04:51.333Z,69.66
2022-07-29T13:05:50.332Z,68.93
2022-07-29T13:06:51.071Z,68.33
2022-07-29T13:07:55.111Z,66.60
2022-07-29T13:08:51.293Z,66.86
2022-07-29T13:09:50.273Z,65.94
2022-07-29T13:10:50.253Z,65.11
2022-07-29T13:11:50.250Z,62.37
2022-07-29T13:12:50.232Z,63.46
2022-07-29T13:13:50.234Z,60.98
2022-07-29T13:14:51.204Z,60.72
2022-07-29T13:15:50.194Z,60.07
2022-07-29T13:16:50.212Z,57.14
2022-07-29T13:17:50.172Z,57.98
2022-07-29T13:18:50.164Z,53.77
2022-07-29T13:19:50.143Z,54.54
2022-07-29T13:20:50.131Z,55.87
2022-07-29T13:21:50.123Z,53.75
2022-07-29T13:22:50.103Z,53.81
2022-07-29T13:23:50.104Z,54.81
2022-07-29T13:24:50.074Z,55.04
2022-07-29T13:25:50.065Z,55.85
2022-07-29T13:26:50.053Z,55.88
2022-07-29T13:27:50.054Z,57.57
2022-07-29T13:28:50.035Z,58.90
2022-07-29T13:29:50.016Z,55.38
2022-07-29T13:30:50.026Z,53.05
2022-07-29T13:31:49.998Z,52.46
2022-07-29T13:32:49.976Z,52.53
2022-07-29T13:33:49.975Z,51.75
2022-07-29T13:34:49.957Z,52.73
2022-07-29T13:35:49.946Z,52.83
2022-07-29T13:36:49.926Z,51.45
2022-07-29T13:37:49.917Z,53.77
2022-07-29T13:38:49.918Z,54.53
2022-07-29T13:39:51.292Z,52.83
2022-07-29T13:40:49.877Z,55.10
2022-07-29T13:41:49.867Z,52.01
2022-07-29T13:42:49.858Z,52.41
2022-07-29T13:43:50.125Z,53.22
2022-07-29T13:44:49.848Z,53.62
2022-07-29T13:45:49.855Z,51.75
2022-07-29T13:46:49.800Z,52.46
2022-07-29T13:47:49.788Z,52.51
2022-07-29T13:48:49.788Z,53.20
2022-07-29T13:49:49.787Z,52.46
2022-07-29T13:50:49.748Z,54.93
2022-07-29T13:51:49.770Z,52.93
2022-07-29T13:52:49.770Z,51.99
2022-07-29T13:53:49.719Z,51.99
2022-07-29T13:54:49.709Z,51.10
2022-07-29T13:55:49.689Z,51.50
2022-07-29T13:56:49.679Z,51.07
2022-07-29T13:57:49.672Z,50.41
2022-07-29T13:58:49.660Z,50.68
2022-07-29T13:59:53.920Z,51.07
2022-07-29T14:00:49.717Z,51.07
2022-07-29T14:01:49.620Z,50.09
2022-07-29T14:02:49.601Z,53.25
2022-07-29T14:03:49.590Z,51.92
2022-07-29T14:04:49.626Z,52.28
2022-07-29T14:05:49.571Z,52.01
2022-07-29T14:06:49.552Z,51.75
2022-07-29T14:07:49.541Z,53.47
2022-07-29T14:08:49.521Z,53.42
2022-07-29T14:09:49.531Z,55.16
2022-07-29T14:10:49.503Z,56.57
2022-07-29T14:11:49.493Z,58.12
2022-07-29T14:12:49.509Z,57.65
2022-07-29T14:13:49.471Z,57.85
2022-07-29T14:14:49.470Z,57.85
2022-07-29T14:15:49.442Z,60.23
2022-07-29T14:16:52.359Z,58.74
2022-07-29T14:17:49.412Z,58.47
2022-07-29T14:18:49.462Z,58.37
2022-07-29T14:19:49.401Z,58.87
2022-07-29T14:20:49.373Z,59.76
2022-07-29T14:21:49.363Z,60.06
2022-07-29T14:22:49.343Z,59.47
2022-07-29T14:23:49.347Z,59.17
2022-07-29T14:24:49.335Z,58.74
2022-07-29T14:25:49.609Z,57.95
2022-07-29T14:26:49.327Z,58.32
2022-07-29T14:27:49.283Z,57.79
2022-07-29T14:28:49.275Z,56.90
2022-07-29T14:29:49.281Z,57.86
2022-07-29T14:30:49.246Z,58.03
2022-07-29T14:31:49.295Z,56.42
2022-07-29T14:32:49.223Z,55.94
2022-07-29T14:33:49.483Z,52.63
2022-07-29T14:34:49.213Z,53.39
2022-07-29T14:35:49.186Z,52.61
2022-07-29T14:36:49.184Z,51.42
2022-07-29T14:37:49.165Z,51.45
2022-07-29T14:38:49.147Z,52.63
2022-07-29T14:39:49.146Z,52.06
2022-07-29T14:40:50.865Z,53.85
2022-07-29T14:41:49.114Z,52.46
2022-07-29T14:42:49.094Z,52.17
2022-07-29T14:43:49.086Z,51.37
2022-07-29T14:44:49.076Z,51.05
2022-07-29T14:45:49.122Z,51.05
2022-07-29T14:46:49.483Z,51.94
2022-07-29T14:47:49.039Z,52.21
2022-07-29T14:48:49.056Z,52.01
2022-07-29T14:49:49.025Z,50.73
2022-07-29T14:50:48.996Z,51.82
2022-07-29T14:51:48.987Z,51.69
2022-07-29T14:52:48.967Z,51.67
2022-07-29T14:53:48.957Z,49.10
2022-07-29T14:54:48.957Z,50.36
2022-07-29T14:55:48.938Z,49.06
2022-07-29T14:56:48.918Z,49.75
2022-07-29T14:57:48.909Z,52.09
2022-07-29T14:58:51.713Z,48.57
2022-07-29T14:59:48.899Z,49.48
2022-07-29T15:00:48.944Z,50.85
2022-07-29T15:01:48.859Z,49.97
2022-07-29T15:03:04.216Z,50.90
2022-07-29T15:03:49.837Z,50.61
2022-07-29T15:04:48.821Z,51.62
2022-07-29T15:05:48.819Z,51.07
2022-07-29T15:06:48.791Z,51.45
2022-07-29T15:07:48.779Z,51.32
2022-07-29T15:08:48.767Z,51.00
2022-07-29T15:09:49.776Z,50.46
2022-07-29T15:10:48.760Z,49.67
2022-07-29T15:11:48.733Z,51.28
2022-07-29T15:12:48.720Z,49.90
2022-07-29T15:13:48.712Z,49.57
2022-07-29T15:14:48.694Z,50.93
2022-07-29T15:15:48.698Z,49.01
2022-07-29T15:16:48.719Z,47.69
2022-07-29T15:17:48.661Z,47.47
2022-07-29T15:18:48.641Z,45.77
2022-07-29T15:19:48.634Z,46.46
2022-07-29T15:20:48.621Z,46.48
2022-07-29T15:21:49.195Z,47.58
2022-07-29T15:22:48.592Z,46.21
2022-07-29T15:23:48.585Z,46.70
2022-07-29T15:24:48.573Z,47.78
2022-07-29T15:25:48.572Z,47.88
2022-07-29T15:26:48.544Z,47.49
2022-07-29T15:27:49.702Z,49.16
2022-07-29T15:28:48.523Z,46.97
2022-07-29T15:29:48.513Z,47.29
2022-07-29T15:30:48.512Z,46.58
2022-07-29T15:31:48.605Z,48.27
2022-07-29T15:32:48.473Z,49.95
2022-07-29T15:33:49.466Z,48.08
2022-07-29T15:34:48.453Z,48.86
2022-07-29T15:35:48.445Z,48.39
2022-07-29T15:36:53.078Z,47.80
2022-07-29T15:37:49.684Z,47.69
2022-07-29T15:38:48.395Z,49.38
2022-07-29T15:39:48.384Z,47.41
2022-07-29T15:40:48.382Z,48.32
2022-07-29T15:41:48.366Z,49.13
2022-07-29T15:42:48.343Z,47.85
2022-07-29T15:43:48.334Z,47.63
2022-07-29T15:44:48.316Z,47.51
2022-07-29T15:45:48.338Z,47.12
2022-07-29T15:46:48.295Z,49.50
2022-07-29T15:47:48.286Z,47.53
2022-07-29T15:48:48.422Z,47.73
2022-07-29T15:49:49.464Z,48.13
2022-07-29T15:50:48.256Z,47.46
2022-07-29T15:51:48.237Z,47.66
2022-07-29T15:52:48.216Z,47.75
2022-07-29T15:53:53.226Z,49.26
2022-07-29T15:54:49.188Z,49.26
2022-07-29T15:55:48.197Z,49.06
2022-07-29T15:56:48.187Z,48.76
2022-07-29T15:57:48.157Z,50.36
2022-07-29T15:58:48.215Z,49.01
2022-07-29T15:59:48.136Z,49.82
2022-07-29T16:00:48.188Z,50.02
2022-07-29T16:01:48.109Z,51.69
2022-07-29T16:02:48.089Z,50.83
2022-07-29T16:03:48.116Z,52.28
2022-07-29T16:04:48.067Z,51.10
2022-07-29T16:05:48.068Z,49.99
2022-07-29T16:06:48.039Z,49.18
2022-07-29T16:07:48.037Z,50.54
2022-07-29T16:08:48.019Z,48.79
2022-07-29T16:09:52.843Z,50.56
2022-07-29T16:10:49.009Z,49.18
2022-07-29T16:11:47.989Z,49.82
2022-07-29T16:12:47.970Z,51.10
2022-07-29T16:13:47.961Z,53.13
2022-07-29T16:14:48.008Z,53.48
2022-07-29T16:16:02.366Z,56.21
2022-07-29T16:16:48.954Z,56.83
2022-07-29T16:17:47.910Z,57.85
2022-07-29T16:18:47.894Z,58.47
2022-07-29T16:19:47.881Z,57.68
2022-07-29T16:20:47.888Z,58.20
2022-07-29T16:21:47.871Z,58.60
2022-07-29T16:22:47.843Z,59.03
2022-07-29T16:23:47.832Z,60.35
2022-07-29T16:24:47.820Z,60.44
2022-07-29T16:25:59.800Z,61.14
2022-07-29T16:26:48.802Z,60.38
2022-07-29T16:27:47.781Z,61.27
2022-07-29T16:28:47.773Z,60.87
2022-07-29T16:29:47.752Z,60.50
2022-07-29T16:30:47.743Z,61.30
2022-07-29T16:31:47.816Z,61.60
2022-07-29T16:32:47.712Z,61.60
2022-07-29T16:33:55.118Z,61.57
2022-07-29T16:34:48.692Z,61.24
2022-07-29T16:35:47.681Z,60.42
2022-07-29T16:36:48.052Z,59.56
2022-07-29T16:37:47.654Z,59.47
2022-07-29T16:38:47.677Z,58.87
2022-07-29T16:39:47.633Z,59.23
2022-07-29T16:40:47.613Z,57.59
2022-07-29T16:41:47.615Z,56.57
2022-07-29T16:42:47.831Z,56.68
2022-07-29T16:43:47.574Z,55.43
2022-07-29T16:44:47.565Z,54.22
2022-07-29T16:45:47.572Z,54.42
2022-07-29T16:46:47.544Z,54.12
2022-07-29T16:47:47.525Z,53.60
2022-07-29T16:48:47.561Z,53.57
2022-07-29T16:49:47.497Z,52.39
2022-07-29T16:50:47.486Z,52.95
2022-07-29T16:51:47.485Z,51.87
2022-07-29T16:52:47.468Z,52.19
2022-07-29T16:53:49.809Z,51.99
2022-07-29T16:54:47.434Z,52.19
2022-07-29T16:55:47.417Z,53.25
2022-07-29T16:56:47.415Z,52.56
2022-07-29T16:57:47.386Z,51.47
2022-07-29T16:58:47.384Z,51.47
2022-07-29T16:59:47.367Z,51.28
2022-07-29T17:00:47.391Z,51.97
2022-07-29T17:01:47.385Z,52.06
2022-07-29T17:02:47.336Z,52.36
2022-07-29T17:03:47.326Z,51.67
2022-07-29T17:04:47.317Z,53.94
2022-07-29T17:05:52.599Z,50.51
2022-07-29T17:06:48.298Z,51.10
2022-07-29T17:07:47.268Z,52.01
2022-07-29T17:08:47.258Z,52.51
2022-07-29T17:09:47.248Z,52.17
2022-07-29T17:10:47.242Z,53.28
2022-07-29T17:11:53.358Z,54.52
2022-07-29T17:12:48.208Z,54.94
2022-07-29T17:13:47.196Z,55.57
2022-07-29T17:14:47.178Z,55.27
2022-07-29T17:15:47.172Z,57.08
2022-07-29T17:17:02.496Z,56.71
2022-07-29T17:17:56.540Z,58.43
2022-07-29T17:18:48.130Z,57.34
2022-07-29T17:19:47.110Z,58.65
2022-07-29T17:20:47.107Z,58.26
2022-07-29T17:21:49.053Z,59.68
2022-07-29T17:22:47.080Z,60.47
2022-07-29T17:23:47.060Z,59.18